Time;durP1;ratioP1;P1;durP2;ratioP2;P2;SDS_P1;SDS_P2;PMS_P1;PMS_P2;Temp;Humidity;BMP_temperature;BMP_pressure;BME280_temperature;BME280_humidity;BME280_pressure;Samples;Min_cycle;Max_cycle;Signal;HPM_P1;HPM_P2
2023/04/22 00:04:28;;;;;;;8.45;3.65;;;12.70;99.90;;;;;;12512774;28;20060;-82
2023/04/22 00:10:30;;;;;;;7.47;3.33;;;12.60;99.90;;;;;;12489126;28;20049;-82
2023/04/22 00:16:32;;;;;;;6.63;3.25;;;12.60;99.90;;;;;;12489612;28;20062;-83
2023/04/22 00:22:34;;;;;;;9.40;3.17;;;12.70;99.90;;;;;;12526457;28;20603;-82
2023/04/22 00:28:36;;;;;;;10.40;3.10;;;12.70;99.90;;;;;;12491224;28;20128;-83
2023/04/22 00:34:38;;;;;;;10.35;3.28;;;12.70;99.90;;;;;;12508738;28;20795;-82
2023/04/22 00:40:40;;;;;;;5.55;3.05;;;12.60;99.90;;;;;;12510028;28;20052;-82
2023/04/22 00:46:41;;;;;;;10.20;3.17;;;12.80;99.90;;;;;;12525988;28;20061;-82
2023/04/22 00:52:44;;;;;;;8.45;3.45;;;12.80;99.90;;;;;;12502183;28;20199;-82
2023/04/22 00:58:45;;;;;;;7.88;3.38;;;12.50;99.90;;;;;;12519730;28;20131;-82
2023/04/22 01:04:48;;;;;;;8.55;3.65;;;12.10;99.90;;;;;;12503530;28;20096;-82
2023/04/22 01:10:50;;;;;;;6.97;3.50;;;11.80;99.90;;;;;;12496961;28;20045;-82
2023/04/22 01:16:55;;;;;;;6.00;3.10;;;11.80;99.90;;;;;;12514281;28;20049;-82
2023/04/22 01:23:01;;;;;;;6.50;3.30;;;11.80;99.90;;;;;;12507906;28;20045;-82
2023/04/22 01:29:04;;;;;;;8.13;3.80;;;11.50;99.90;;;;;;12503910;28;20064;-82
2023/04/22 01:35:07;;;;;;;5.28;3.53;;;11.40;99.90;;;;;;12506247;28;20044;-81
2023/04/22 01:41:09;;;;;;;7.00;3.72;;;11.20;99.90;;;;;;12514939;28;20054;-82
2023/04/22 01:47:12;;;;;;;13.63;3.55;;;11.40;99.90;;;;;;12492362;28;20422;-82
2023/04/22 01:53:14;;;;;;;9.27;3.53;;;11.30;99.90;;;;;;12524995;28;20102;-82
2023/04/22 01:59:15;;;;;;;7.82;3.33;;;11.20;99.90;;;;;;12512951;28;20056;-82
2023/04/22 02:05:17;;;;;;;9.50;3.78;;;11.00;99.90;;;;;;12523259;28;20045;-82
2023/04/22 02:11:20;;;;;;;9.63;3.65;;;10.90;99.90;;;;;;12547175;28;20551;-82
2023/04/22 02:17:21;;;;;;;9.45;3.92;;;10.90;99.90;;;;;;12529150;28;20482;-82
2023/04/22 02:23:24;;;;;;;9.80;3.85;;;10.80;99.90;;;;;;12536672;28;20053;-82
2023/04/22 02:29:26;;;;;;;5.95;3.58;;;10.90;99.90;;;;;;12533614;28;20459;-82
2023/04/22 02:35:27;;;;;;;9.88;3.50;;;11.00;99.90;;;;;;12531337;28;20041;-82
2023/04/22 02:41:29;;;;;;;7.57;3.40;;;10.90;99.90;;;;;;12497955;28;20064;-82
2023/04/22 02:47:31;;;;;;;8.90;3.13;;;10.90;99.90;;;;;;12538749;28;20057;-82
2023/04/22 02:53:33;;;;;;;7.43;3.45;;;10.80;99.90;;;;;;12548728;28;20060;-82
2023/04/22 02:59:35;;;;;;;10.98;2.85;;;11.10;99.90;;;;;;12511068;28;20451;-82
2023/04/22 03:05:38;;;;;;;6.78;3.25;;;11.40;99.90;;;;;;12488086;28;20079;-82
2023/04/22 03:11:40;;;;;;;6.03;2.85;;;11.90;99.90;;;;;;12496989;28;21243;-82
2023/04/22 03:17:42;;;;;;;8.50;2.85;;;12.30;99.90;;;;;;12513712;28;20459;-82
2023/04/22 03:23:44;;;;;;;8.43;3.05;;;12.40;99.90;;;;;;12505209;28;21409;-82
2023/04/22 03:29:45;;;;;;;7.18;2.90;;;12.50;99.90;;;;;;12492587;28;20102;-81
2023/04/22 03:35:51;;;;;;;6.22;3.22;;;12.70;99.90;;;;;;12487693;28;20067;-82
2023/04/22 03:41:52;;;;;;;9.77;3.45;;;12.60;99.90;;;;;;12498363;28;20140;-83
2023/04/22 03:47:54;;;;;;;5.82;2.90;;;12.80;99.90;;;;;;12536710;28;20504;-82
2023/04/22 03:53:56;;;;;;;5.90;3.15;;;12.70;99.90;;;;;;12546834;28;20087;-81
2023/04/22 03:59:58;;;;;;;9.98;3.28;;;12.80;99.90;;;;;;12581839;28;20102;-81
2023/04/22 04:05:59;;;;;;;7.55;2.80;;;12.80;99.90;;;;;;12549151;28;20080;-81
2023/04/22 04:12:02;;;;;;;6.82;3.40;;;12.90;99.90;;;;;;12527842;28;20120;-81
2023/04/22 04:18:04;;;;;;;7.18;2.85;;;12.90;99.90;;;;;;12517581;28;20599;-82
2023/04/22 04:24:06;;;;;;;7.82;2.97;;;12.90;99.90;;;;;;12515978;28;20059;-82
2023/04/22 04:30:09;;;;;;;7.72;3.75;;;12.90;99.90;;;;;;12541093;28;20056;-82
2023/04/22 04:36:10;;;;;;;7.13;3.60;;;12.80;99.90;;;;;;12541711;28;20489;-82
2023/04/22 04:42:13;;;;;;;8.65;3.10;;;13.10;99.90;;;;;;12528409;28;20082;-81
2023/04/22 04:48:15;;;;;;;5.82;2.60;;;13.40;99.90;;;;;;12513323;28;20080;-82
2023/04/22 04:54:17;;;;;;;5.10;3.03;;;13.90;99.90;;;;;;12548393;28;20068;-81
2023/04/22 05:00:19;;;;;;;5.15;3.22;;;13.10;99.90;;;;;;12494873;28;20060;-81
2023/04/22 05:06:21;;;;;;;5.43;2.95;;;12.80;99.90;;;;;;12498985;28;20053;-81
2023/04/22 05:12:23;;;;;;;5.60;3.13;;;12.80;99.90;;;;;;12517658;28;20128;-81
2023/04/22 05:18:25;;;;;;;7.05;3.10;;;13.00;99.90;;;;;;12541758;28;20514;-81
2023/04/22 05:24:26;;;;;;;5.72;3.22;;;13.00;99.90;;;;;;12531982;28;20099;-81
2023/04/22 05:30:28;;;;;;;4.90;3.33;;;13.00;99.90;;;;;;12505802;28;20067;-82
2023/04/22 05:36:30;;;;;;;4.40;3.05;;;13.20;99.90;;;;;;12546750;28;20069;-81
2023/04/22 05:42:33;;;;;;;8.50;3.08;;;13.20;99.90;;;;;;12526622;28;20045;-82
2023/04/22 05:48:35;;;;;;;5.20;3.10;;;13.30;99.90;;;;;;12501763;28;20148;-82
2023/04/22 05:54:37;;;;;;;6.53;2.75;;;13.30;99.90;;;;;;12511770;28;21155;-82
2023/04/22 06:00:39;;;;;;;7.07;2.50;;;13.40;99.90;;;;;;12499827;28;20042;-82
2023/04/22 06:06:41;;;;;;;4.72;2.47;;;13.60;99.90;;;;;;12513867;28;20418;-82
2023/04/22 06:12:43;;;;;;;4.88;2.80;;;13.80;99.90;;;;;;12502057;28;20049;-81
2023/04/22 06:18:44;;;;;;;5.53;2.72;;;14.00;99.90;;;;;;12522983;28;20049;-81
2023/04/22 06:24:46;;;;;;;7.28;2.63;;;14.20;99.90;;;;;;12504879;28;20081;-81
2023/04/22 06:30:49;;;;;;;8.50;2.65;;;14.30;99.90;;;;;;12524062;28;20274;-81
2023/04/22 06:36:52;;;;;;;6.10;2.58;;;14.30;99.90;;;;;;12487938;28;20045;-81
2023/04/22 06:42:53;;;;;;;5.28;2.40;;;14.40;99.90;;;;;;12497945;28;20409;-81
2023/04/22 06:48:55;;;;;;;7.15;2.90;;;14.50;99.90;;;;;;12525579;28;20140;-81
2023/04/22 06:54:57;;;;;;;3.70;2.30;;;14.80;99.90;;;;;;12538413;28;20425;-81
2023/04/22 07:00:59;;;;;;;3.67;2.20;;;15.00;99.90;;;;;;12537964;28;20102;-81
2023/04/22 07:07:01;;;;;;;4.45;2.40;;;15.40;99.90;;;;;;12518181;28;20045;-82
2023/04/22 07:13:03;;;;;;;5.40;2.53;;;15.40;99.90;;;;;;12510402;28;20509;-82
2023/04/22 07:19:05;;;;;;;5.70;2.72;;;15.40;99.90;;;;;;12534073;28;20071;-82
2023/04/22 07:25:07;;;;;;;6.93;2.75;;;15.40;99.90;;;;;;12509242;28;20042;-82
2023/04/22 07:31:09;;;;;;;6.22;3.13;;;15.60;99.90;;;;;;12517673;28;20045;-81
2023/04/22 07:37:11;;;;;;;5.00;2.78;;;15.70;99.90;;;;;;12527635;28;20044;-82
2023/04/22 07:43:13;;;;;;;8.20;2.85;;;15.80;99.90;;;;;;12533295;28;20565;-81
2023/04/22 07:49:16;;;;;;;6.55;2.92;;;15.80;99.90;;;;;;12520746;28;20049;-82
2023/04/22 07:55:17;;;;;;;4.53;2.75;;;16.30;99.90;;;;;;12500237;28;20084;-81
2023/04/22 08:01:19;;;;;;;6.22;2.67;;;16.20;99.90;;;;;;12508450;28;20060;-82
2023/04/22 08:07:21;;;;;;;5.28;2.75;;;16.60;99.90;;;;;;12439911;28;20054;-82
2023/04/22 08:13:26;;;;;;;10.43;3.40;;;16.90;99.90;;;;;;12453130;28;20052;-82
2023/04/22 08:19:27;;;;;;;5.25;2.95;;;17.10;99.90;;;;;;12465982;28;20100;-82
2023/04/22 08:25:30;;;;;;;5.88;3.00;;;17.30;99.90;;;;;;12468158;28;20085;-82
2023/04/22 08:31:33;;;;;;;5.88;3.20;;;17.40;99.90;;;;;;12453130;28;20080;-82
2023/04/22 08:37:35;;;;;;;4.17;2.90;;;17.90;99.90;;;;;;12462824;28;20789;-83
2023/04/22 08:43:37;;;;;;;9.65;2.92;;;18.00;99.90;;;;;;12443763;28;20041;-82
2023/04/22 08:49:39;;;;;;;6.45;2.70;;;18.20;99.90;;;;;;12465562;28;20051;-83
2023/04/22 08:55:43;;;;;;;6.50;2.63;;;18.40;99.90;;;;;;12458642;28;20053;-83
2023/04/22 09:01:48;;;;;;;;;;;18.70;99.90;;;;;;12470818;28;20054;-83
2023/04/22 09:07:51;;;;;;;5.90;3.40;;;18.70;99.90;;;;;;12512397;28;19932;-83
2023/04/22 09:13:53;;;;;;;6.00;2.55;;;18.80;99.90;;;;;;12521636;28;20178;-83
2023/04/22 09:20:04;;;;;;;5.65;3.08;;;19.00;99.90;;;;;;12505669;28;20114;-82
2023/04/22 09:26:07;;;;;;;6.20;2.70;;;19.10;99.90;;;;;;12504014;28;20060;-80
2023/04/22 09:32:10;;;;;;;6.13;2.50;;;19.60;99.90;;;;;;12503252;28;20127;-83
2023/04/22 09:38:12;;;;;;;;;;;19.70;99.90;;;;;;12504344;28;20102;-84
2023/04/22 09:44:16;;;;;;;4.03;2.65;;;19.70;99.90;;;;;;12514048;28;19974;-82
2023/04/22 09:50:26;;;;;;;5.25;2.88;;;19.80;99.90;;;;;;12535243;28;20052;-83
2023/04/22 09:56:50;;;;;;;4.20;2.90;;;19.70;99.90;;;;;;12501705;28;20636;-83
2023/04/22 10:02:52;;;;;;;6.85;3.00;;;20.00;99.90;;;;;;12506054;28;20048;-83
2023/04/22 10:08:54;;;;;;;4.22;2.80;;;20.00;99.90;;;;;;12521028;28;20067;-83
2023/04/22 10:14:56;;;;;;;7.45;3.35;;;20.30;99.90;;;;;;12515388;28;20071;-83
2023/04/22 10:20:59;;;;;;;3.90;2.47;;;20.20;99.90;;;;;;12501702;28;20103;-83
2023/04/22 10:27:07;;;;;;;4.57;2.90;;;20.50;99.90;;;;;;12534425;28;20053;-83
2023/04/22 10:33:20;;;;;;;6.78;3.58;;;20.90;99.90;;;;;;12510739;28;20055;-86
2023/04/22 10:39:23;;;;;;;6.30;2.95;;;20.40;99.90;;;;;;12506590;28;20140;-85
2023/04/22 10:45:25;;;;;;;5.22;2.78;;;20.80;99.90;;;;;;12511696;28;20049;-86
2023/04/22 10:51:45;;;;;;;5.00;2.63;;;21.20;99.90;;;;;;12516050;28;20042;-83
2023/04/22 10:57:48;;;;;;;3.50;2.60;;;21.10;99.90;;;;;;12508673;28;20057;-83
2023/04/22 11:03:50;;;;;;;;;;;21.20;99.90;;;;;;12499650;28;20041;-83
2023/04/22 11:09:58;;;;;;;4.70;2.25;;;21.60;99.90;;;;;;12525599;28;19920;-83
2023/04/22 11:16:01;;;;;;;3.47;2.50;;;21.50;99.90;;;;;;12507858;28;20055;-84
2023/04/22 11:22:03;;;;;;;4.83;2.33;;;21.40;99.90;;;;;;12514965;28;20049;-83
2023/04/22 11:28:06;;;;;;;3.05;1.85;;;21.10;99.90;;;;;;12505605;28;20053;-82
2023/04/22 11:34:08;;;;;;;6.35;1.73;;;21.30;99.90;;;;;;12522357;28;20049;-84
2023/04/22 11:40:13;;;;;;;5.30;2.20;;;21.70;99.90;;;;;;12515526;28;20057;-84
2023/04/22 11:46:37;;;;;;;4.60;1.50;;;22.30;99.90;;;;;;12489163;28;20045;-83
2023/04/22 11:52:51;;;;;;;3.50;1.40;;;22.50;99.90;;;;;;12528514;28;20059;-84
2023/04/22 11:58:53;;;;;;;4.18;1.40;;;22.40;99.90;;;;;;12495542;28;20061;-83
2023/04/22 12:04:57;;;;;;;3.17;1.30;;;22.50;99.90;;;;;;12493836;28;20057;-82
2023/04/22 12:11:02;;;;;;;4.32;1.65;;;22.50;99.90;;;;;;12492603;28;20358;-83
2023/04/22 12:17:07;;;;;;;6.30;1.27;;;22.30;99.90;;;;;;12504714;28;20134;-83
2023/04/22 12:23:14;;;;;;;8.00;1.30;;;22.40;99.90;;;;;;12533039;28;20047;-83
2023/04/22 12:29:16;;;;;;;4.32;1.52;;;23.00;99.90;;;;;;12506753;28;20049;-83
2023/04/22 12:35:18;;;;;;;2.22;1.30;;;23.10;99.90;;;;;;12532659;28;20162;-84
2023/04/22 12:41:22;;;;;;;4.30;1.60;;;22.90;99.90;;;;;;12512913;28;20130;-83
2023/04/22 12:47:24;;;;;;;6.75;1.40;;;22.20;99.90;;;;;;12527968;28;20040;-83
2023/04/22 12:53:27;;;;;;;2.33;1.30;;;23.00;99.90;;;;;;12513893;28;20614;-83
2023/04/22 12:59:28;;;;;;;2.73;1.30;;;23.60;99.90;;;;;;12516149;28;20045;-83
2023/04/22 13:05:30;;;;;;;6.93;1.67;;;23.80;99.90;;;;;;12504248;28;20053;-83
2023/04/22 13:11:33;;;;;;;4.05;1.65;;;23.90;99.90;;;;;;12519771;28;20390;-82
2023/04/22 13:17:36;;;;;;;3.75;1.55;;;23.60;99.90;;;;;;12511893;28;20202;-82
2023/04/22 13:23:38;;;;;;;5.20;1.58;;;22.70;99.90;;;;;;12512679;28;20037;-83
2023/04/22 13:29:41;;;;;;;5.90;1.60;;;22.20;99.90;;;;;;12511464;28;20045;-83
2023/04/22 13:35:44;;;;;;;2.37;1.30;;;22.10;99.90;;;;;;12515601;28;20077;-82
2023/04/22 13:41:45;;;;;;;3.10;1.65;;;21.80;99.90;;;;;;12504955;28;20714;-83
2023/04/22 13:47:47;;;;;;;4.07;1.40;;;21.70;99.90;;;;;;12539902;28;20124;-83
2023/04/22 13:53:49;;;;;;;6.82;1.48;;;21.70;99.90;;;;;;12578072;28;20055;-83
2023/04/22 13:59:51;;;;;;;3.45;1.30;;;22.30;99.90;;;;;;12556565;28;20052;-85
2023/04/22 14:05:53;;;;;;;10.43;1.30;;;22.60;99.90;;;;;;12555986;28;20075;-84
2023/04/22 14:11:55;;;;;;;2.97;1.42;;;22.90;99.90;;;;;;12540193;28;20095;-83
2023/04/22 14:17:57;;;;;;;2.87;1.30;;;22.30;99.90;;;;;;12513292;28;20076;-83
2023/04/22 14:23:59;;;;;;;3.22;1.45;;;22.50;99.90;;;;;;12506449;28;20520;-83
2023/04/22 14:30:03;;;;;;;2.28;1.20;;;23.00;99.90;;;;;;12516995;28;20088;-83
2023/04/22 14:36:05;;;;;;;2.22;1.20;;;22.70;99.90;;;;;;12516071;28;20581;-84
2023/04/22 14:42:06;;;;;;;4.10;1.50;;;22.50;99.90;;;;;;12510593;28;20045;-82
2023/04/22 14:48:08;;;;;;;5.72;1.70;;;22.90;99.90;;;;;;12517006;28;20091;-83
2023/04/22 14:54:10;;;;;;;2.10;1.20;;;22.10;99.90;;;;;;12494325;28;20390;-83
2023/04/22 15:00:13;;;;;;;2.10;1.38;;;21.80;99.90;;;;;;12506750;28;20485;-83
2023/04/22 15:06:15;;;;;;;2.15;1.20;;;21.70;99.90;;;;;;12525303;28;20061;-83
2023/04/22 15:12:17;;;;;;;4.25;1.30;;;21.70;99.90;;;;;;12506493;28;20060;-83
2023/04/22 15:18:18;;;;;;;6.78;1.50;;;21.60;99.90;;;;;;12501678;28;20042;-83
2023/04/22 15:24:20;;;;;;;2.63;1.10;;;21.50;99.90;;;;;;12513485;28;20095;-83
2023/04/22 15:30:23;;;;;;;5.20;1.30;;;21.50;99.90;;;;;;12519820;28;20045;-83
2023/04/22 15:36:25;;;;;;;5.60;1.40;;;21.60;99.90;;;;;;12503673;28;20063;-83
2023/04/22 15:42:26;;;;;;;4.35;1.42;;;21.80;99.90;;;;;;12494692;28;20045;-85
2023/04/22 15:48:29;;;;;;;3.67;1.33;;;22.30;99.90;;;;;;12511708;28;20041;-84
2023/04/22 15:54:31;;;;;;;1.88;1.10;;;21.60;99.90;;;;;;12516415;28;20078;-82
2023/04/22 16:00:33;;;;;;;5.43;1.20;;;21.30;99.90;;;;;;12516396;28;20076;-83
2023/04/22 16:06:36;;;;;;;3.00;1.25;;;21.10;99.90;;;;;;12522880;28;20083;-82
2023/04/22 16:12:38;;;;;;;4.18;1.27;;;21.40;99.90;;;;;;12499436;28;20046;-82
2023/04/22 16:18:40;;;;;;;6.10;1.60;;;21.30;99.90;;;;;;12528805;28;20060;-81
2023/04/22 16:24:45;;;;;;;3.33;1.38;;;21.00;99.90;;;;;;12507488;28;20045;-81
2023/04/22 16:30:46;;;;;;;7.88;1.77;;;20.90;99.90;;;;;;12499757;28;20045;-81
2023/04/22 16:36:48;;;;;;;7.10;1.48;;;20.70;99.90;;;;;;12526030;28;20412;-82
2023/04/22 16:42:50;;;;;;;7.03;1.83;;;20.60;99.90;;;;;;12533173;28;20052;-82
2023/04/22 16:48:52;;;;;;;3.70;1.38;;;20.60;99.90;;;;;;12506454;28;20190;-81
2023/04/22 16:54:54;;;;;;;4.07;1.70;;;20.30;99.90;;;;;;12511826;28;20049;-81
2023/04/22 17:00:56;;;;;;;2.88;1.65;;;20.10;99.90;;;;;;12532811;28;20049;-82
2023/04/22 17:06:59;;;;;;;3.67;1.75;;;19.30;99.90;;;;;;12525247;28;20053;-82
2023/04/22 17:13:01;;;;;;;3.28;2.13;;;18.70;99.90;;;;;;12529037;28;20053;-81
2023/04/22 17:19:04;;;;;;;3.20;2.00;;;18.10;99.90;;;;;;12502943;28;20056;-81
2023/04/22 17:25:06;;;;;;;3.88;2.38;;;17.60;99.90;;;;;;12501755;28;20048;-81
2023/04/22 17:31:08;;;;;;;4.60;2.50;;;17.20;99.90;;;;;;12502777;28;20045;-81
2023/04/22 17:37:10;;;;;;;4.30;2.20;;;16.90;99.90;;;;;;12517164;28;20056;-81
2023/04/22 17:43:12;;;;;;;8.50;3.90;;;16.50;99.90;;;;;;12530535;28;20052;-81
2023/04/22 17:49:14;;;;;;;5.28;2.85;;;16.10;99.90;;;;;;12512837;28;20048;-81
2023/04/22 17:55:15;;;;;;;4.30;2.90;;;16.10;99.90;;;;;;12513461;28;20053;-81
2023/04/22 18:01:17;;;;;;;5.53;3.03;;;16.30;99.90;;;;;;12537524;28;21081;-81
2023/04/22 18:07:19;;;;;;;8.15;3.55;;;16.40;99.90;;;;;;12489276;28;20053;-81
2023/04/22 18:13:21;;;;;;;7.68;3.90;;;16.50;99.90;;;;;;12512841;28;20045;-81
2023/04/22 18:19:23;;;;;;;6.15;4.07;;;16.20;99.90;;;;;;12520867;28;20053;-81
2023/04/22 18:25:25;;;;;;;6.95;3.83;;;16.10;99.90;;;;;;12504577;28;20566;-81
2023/04/22 18:31:27;;;;;;;6.13;3.60;;;16.10;99.90;;;;;;12496521;28;20064;-81
2023/04/22 18:37:29;;;;;;;6.20;3.80;;;16.00;99.90;;;;;;12512617;28;20061;-81
2023/04/22 18:43:31;;;;;;;4.43;3.13;;;16.00;99.90;;;;;;12508852;28;20071;-81
2023/04/22 18:49:33;;;;;;;7.10;3.47;;;16.10;99.90;;;;;;12517657;28;20053;-80
2023/04/22 18:55:35;;;;;;;5.00;3.30;;;16.00;99.90;;;;;;12536189;28;20459;-80
2023/04/22 19:01:37;;;;;;;4.75;3.03;;;16.00;99.90;;;;;;12533915;28;20130;-80
2023/04/22 19:07:40;;;;;;;6.35;3.13;;;15.90;99.90;;;;;;12512280;28;20049;-80
2023/04/22 19:13:45;;;;;;;7.00;3.13;;;15.80;99.90;;;;;;12517749;28;20508;-80
2023/04/22 19:19:47;;;;;;;5.38;2.78;;;15.80;99.90;;;;;;12514204;28;20267;-80
2023/04/22 19:25:49;;;;;;;4.88;3.30;;;16.00;99.90;;;;;;12505000;28;20500;-79
2023/04/22 19:31:51;;;;;;;4.35;2.95;;;15.90;99.90;;;;;;12487890;28;20107;-80
2023/04/22 19:37:53;;;;;;;6.78;3.40;;;15.90;99.90;;;;;;12518230;28;20195;-80
2023/04/22 19:43:57;;;;;;;6.32;3.33;;;15.90;99.90;;;;;;12512719;28;20132;-79
2023/04/22 19:49:59;;;;;;;8.63;4.00;;;16.00;99.90;;;;;;12506621;28;20740;-80
2023/04/22 19:56:02;;;;;;;5.75;3.13;;;15.90;99.90;;;;;;12499194;28;20061;-80
2023/04/22 20:02:05;;;;;;;4.93;2.70;;;15.90;99.90;;;;;;12494194;28;20057;-80
2023/04/22 20:08:08;;;;;;;6.00;2.70;;;16.00;99.90;;;;;;12530082;28;20057;-80
2023/04/22 20:14:12;;;;;;;6.63;2.83;;;15.90;99.90;;;;;;12515766;28;20470;-80
2023/04/22 20:20:16;;;;;;;5.97;3.30;;;15.80;99.90;;;;;;12532672;28;20053;-80
2023/04/22 20:26:18;;;;;;;6.20;2.60;;;15.70;99.90;;;;;;12523986;28;20213;-80
2023/04/22 20:32:20;;;;;;;3.85;2.10;;;15.70;99.90;;;;;;12518045;28;20045;-80
2023/04/22 20:38:24;;;;;;;3.97;2.42;;;15.60;99.90;;;;;;12491688;28;20061;-80
2023/04/22 20:44:25;;;;;;;6.38;2.65;;;15.10;99.90;;;;;;12519889;28;20210;-80
2023/04/22 20:50:32;;;;;;;4.07;2.33;;;14.90;99.90;;;;;;12527233;28;20167;-80
2023/04/22 20:56:34;;;;;;;4.43;2.47;;;14.80;99.90;;;;;;12512631;28;20359;-80
2023/04/22 21:02:37;;;;;;;4.50;2.75;;;14.70;99.90;;;;;;12518166;28;20056;-79
2023/04/22 21:08:39;;;;;;;7.07;3.13;;;14.60;99.90;;;;;;12500638;28;20116;-80
2023/04/22 21:14:42;;;;;;;4.80;2.90;;;14.60;99.90;;;;;;12510019;28;20049;-80
2023/04/22 21:20:45;;;;;;;8.80;3.15;;;14.60;99.90;;;;;;12515087;28;20060;-80
2023/04/22 21:26:47;;;;;;;5.38;3.53;;;14.40;99.90;;;;;;12518559;28;20041;-80
2023/04/22 21:32:49;;;;;;;6.05;3.92;;;14.20;99.90;;;;;;12510196;28;20402;-79
2023/04/22 21:38:51;;;;;;;6.03;4.32;;;14.10;99.90;;;;;;12507002;28;20433;-80
2023/04/22 21:44:53;;;;;;;7.28;4.80;;;14.10;99.90;;;;;;12516009;28;20139;-80
2023/04/22 21:50:55;;;;;;;8.27;4.82;;;14.10;99.90;;;;;;12519432;28;20500;-79
2023/04/22 21:56:57;;;;;;;6.20;4.55;;;14.00;99.90;;;;;;12537653;28;20057;-79
2023/04/22 22:02:59;;;;;;;8.45;5.15;;;14.00;99.90;;;;;;12508384;28;20048;-79
2023/04/22 22:09:01;;;;;;;7.32;5.15;;;13.90;99.90;;;;;;12502862;28;20053;-80
2023/04/22 22:15:04;;;;;;;8.63;6.30;;;14.00;99.90;;;;;;12494784;28;20565;-79
2023/04/22 22:21:06;;;;;;;8.17;6.67;;;14.00;99.90;;;;;;12504218;28;20068;-79
2023/04/22 22:27:08;;;;;;;10.18;6.65;;;14.00;99.90;;;;;;12506977;28;20448;-79
2023/04/22 22:33:10;;;;;;;7.85;5.93;;;13.90;99.90;;;;;;12496641;28;20099;-79
2023/04/22 22:39:14;;;;;;;10.05;5.90;;;13.90;99.90;;;;;;12519097;28;20072;-79
2023/04/22 22:45:16;;;;;;;8.95;6.20;;;13.90;99.90;;;;;;12542193;28;20206;-79
2023/04/22 22:51:18;;;;;;;9.73;5.95;;;13.80;99.90;;;;;;12521639;28;20420;-80
2023/04/22 22:57:20;;;;;;;7.97;4.95;;;13.70;99.90;;;;;;12496043;28;20148;-79
2023/04/22 23:03:22;;;;;;;6.22;4.35;;;13.80;99.90;;;;;;12507800;28;20098;-80
2023/04/22 23:09:24;;;;;;;7.43;4.53;;;13.80;99.90;;;;;;12511818;28;20102;-80
2023/04/22 23:15:26;;;;;;;8.95;4.88;;;13.80;99.90;;;;;;12497241;28;20049;-80
2023/04/22 23:21:28;;;;;;;6.13;4.03;;;13.90;99.90;;;;;;12515654;28;20057;-80
2023/04/22 23:27:30;;;;;;;6.75;5.07;;;14.00;99.90;;;;;;12505948;28;20072;-80
2023/04/22 23:33:34;;;;;;;7.38;6.18;;;13.60;99.90;;;;;;12519443;28;20075;-81
2023/04/22 23:39:36;;;;;;;;;;;13.30;99.90;;;;;;12522250;28;20082;-81
2023/04/22 23:45:38;;;;;;;9.43;7.43;;;13.10;99.90;;;;;;12515663;28;19932;-80
2023/04/22 23:51:41;;;;;;;9.18;7.95;;;13.10;99.90;;;;;;12519462;28;20045;-81
2023/04/22 23:57:43;;;;;;;10.57;9.02;;;13.10;99.90;;;;;;12549449;28;20045;-81
